sensor_id;sensor_type;location;lat;lon;timestamp;P1;durP1;ratioP1;P2;durP2;ratioP2
3271;SDS011;1648;50.022;8.424;2023-11-21T00:08:32;8.53;;;4.23;;
3271;SDS011;1648;50.022;8.424;2023-11-21T00:23:36;9.87;;;4.83;;
3271;SDS011;1648;50.022;8.424;2023-11-21T00:38:39;5.30;;;3.23;;
3271;SDS011;1648;50.022;8.424;2023-11-21T00:53:43;7.23;;;4.60;;
3271;SDS011;1648;50.022;8.424;2023-11-21T01:08:47;8.67;;;5.40;;
3271;SDS011;1648;50.022;8.424;2023-11-21T01:23:51;5.07;;;4.17;;
3271;SDS011;1648;50.022;8.424;2023-11-21T01:38:55;5.60;;;4.20;;
3271;SDS011;1648;50.022;8.424;2023-11-21T01:53:58;7.77;;;5.10;;
3271;SDS011;1648;50.022;8.424;2023-11-21T02:09:02;7.87;;;5.80;;
3271;SDS011;1648;50.022;8.424;2023-11-21T02:24:07;8.67;;;5.87;;
3271;SDS011;1648;50.022;8.424;2023-11-21T02:39:10;9.43;;;5.40;;
3271;SDS011;1648;50.022;8.424;2023-11-21T02:54:15;14.07;;;7.20;;
3271;SDS011;1648;50.022;8.424;2023-11-21T03:09:19;10.43;;;5.97;;
3271;SDS011;1648;50.022;8.424;2023-11-21T03:24:23;8.60;;;5.13;;
3271;SDS011;1648;50.022;8.424;2023-11-21T03:39:26;12.60;;;6.40;;
3271;SDS011;1648;50.022;8.424;2023-11-21T03:54:29;17.50;;;8.80;;
3271;SDS011;1648;50.022;8.424;2023-11-21T04:09:33;11.83;;;6.07;;
3271;SDS011;1648;50.022;8.424;2023-11-21T04:24:36;11.00;;;6.73;;
3271;SDS011;1648;50.022;8.424;2023-11-21T04:39:39;8.63;;;5.27;;
3271;SDS011;1648;50.022;8.424;2023-11-21T04:54:43;9.00;;;4.97;;
3271;SDS011;1648;50.022;8.424;2023-11-21T05:09:47;9.83;;;5.70;;
3271;SDS011;1648;50.022;8.424;2023-11-21T05:24:51;11.17;;;5.33;;
3271;SDS011;1648;50.022;8.424;2023-11-21T05:39:55;9.87;;;6.17;;
3271;SDS011;1648;50.022;8.424;2023-11-21T05:54:58;7.40;;;4.57;;
3271;SDS011;1648;50.022;8.424;2023-11-21T06:10:01;5.27;;;3.63;;
3271;SDS011;1648;50.022;8.424;2023-11-21T06:25:06;6.83;;;3.80;;
3271;SDS011;1648;50.022;8.424;2023-11-21T06:40:10;6.00;;;4.53;;
3271;SDS011;1648;50.022;8.424;2023-11-21T06:55:13;4.10;;;3.60;;
3271;SDS011;1648;50.022;8.424;2023-11-21T07:10:16;6.93;;;4.33;;
3271;SDS011;1648;50.022;8.424;2023-11-21T07:25:20;6.10;;;4.27;;
3271;SDS011;1648;50.022;8.424;2023-11-21T07:40:23;7.80;;;5.10;;
3271;SDS011;1648;50.022;8.424;2023-11-21T07:55:27;6.53;;;4.90;;
3271;SDS011;1648;50.022;8.424;2023-11-21T08:10:30;4.93;;;3.70;;
3271;SDS011;1648;50.022;8.424;2023-11-21T08:25:35;5.53;;;2.50;;
3271;SDS011;1648;50.022;8.424;2023-11-21T08:40:38;5.87;;;3.10;;
3271;SDS011;1648;50.022;8.424;2023-11-21T08:55:41;3.13;;;2.63;;
3271;SDS011;1648;50.022;8.424;2023-11-21T09:10:44;4.60;;;2.27;;
3271;SDS011;1648;50.022;8.424;2023-11-21T09:25:48;6.83;;;2.83;;
3271;SDS011;1648;50.022;8.424;2023-11-21T09:40:51;3.13;;;2.53;;
3271;SDS011;1648;50.022;8.424;2023-11-21T09:55:54;4.03;;;2.80;;
3271;SDS011;1648;50.022;8.424;2023-11-21T10:10:58;5.17;;;2.60;;
3271;SDS011;1648;50.022;8.424;2023-11-21T10:26:01;4.27;;;3.10;;
3271;SDS011;1648;50.022;8.424;2023-11-21T10:41:17;4.83;;;2.93;;
3271;SDS011;1648;50.022;8.424;2023-11-21T10:56:22;6.37;;;3.17;;
3271;SDS011;1648;50.022;8.424;2023-11-21T11:11:26;5.27;;;2.70;;
3271;SDS011;1648;50.022;8.424;2023-11-21T11:26:31;6.07;;;2.60;;
3271;SDS011;1648;50.022;8.424;2023-11-21T11:41:42;6.43;;;2.83;;
3271;SDS011;1648;50.022;8.424;2023-11-21T11:56:46;9.80;;;3.57;;
3271;SDS011;1648;50.022;8.424;2023-11-21T12:11:50;5.70;;;3.33;;
3271;SDS011;1648;50.022;8.424;2023-11-21T12:26:55;5.83;;;3.30;;
3271;SDS011;1648;50.022;8.424;2023-11-21T12:42:00;6.30;;;2.67;;
3271;SDS011;1648;50.022;8.424;2023-11-21T12:57:03;3.67;;;2.37;;
3271;SDS011;1648;50.022;8.424;2023-11-21T13:12:08;5.50;;;3.10;;
3271;SDS011;1648;50.022;8.424;2023-11-21T13:27:11;7.40;;;4.07;;
3271;SDS011;1648;50.022;8.424;2023-11-21T13:42:21;5.10;;;2.63;;
3271;SDS011;1648;50.022;8.424;2023-11-21T13:57:53;4.97;;;2.83;;
3271;SDS011;1648;50.022;8.424;2023-11-21T14:12:57;5.83;;;2.90;;
3271;SDS011;1648;50.022;8.424;2023-11-21T14:28:10;11.27;;;5.77;;
3271;SDS011;1648;50.022;8.424;2023-11-21T14:43:15;12.50;;;6.70;;
3271;SDS011;1648;50.022;8.424;2023-11-21T14:58:19;11.53;;;4.47;;
3271;SDS011;1648;50.022;8.424;2023-11-21T15:13:23;10.00;;;6.60;;
3271;SDS011;1648;50.022;8.424;2023-11-21T15:28:29;14.20;;;5.57;;
3271;SDS011;1648;50.022;8.424;2023-11-21T15:43:32;18.70;;;5.80;;
3271;SDS011;1648;50.022;8.424;2023-11-21T15:58:35;10.30;;;5.37;;
3271;SDS011;1648;50.022;8.424;2023-11-21T16:13:39;13.10;;;6.00;;
3271;SDS011;1648;50.022;8.424;2023-11-21T16:28:42;11.90;;;5.27;;
3271;SDS011;1648;50.022;8.424;2023-11-21T16:43:45;13.03;;;7.40;;
3271;SDS011;1648;50.022;8.424;2023-11-21T16:58:49;16.63;;;8.20;;
3271;SDS011;1648;50.022;8.424;2023-11-21T17:13:52;18.60;;;9.20;;
3271;SDS011;1648;50.022;8.424;2023-11-21T17:28:57;14.80;;;7.27;;
3271;SDS011;1648;50.022;8.424;2023-11-21T17:44:01;19.37;;;9.10;;
3271;SDS011;1648;50.022;8.424;2023-11-21T17:59:05;32.40;;;11.57;;
3271;SDS011;1648;50.022;8.424;2023-11-21T18:14:09;23.50;;;10.40;;
3271;SDS011;1648;50.022;8.424;2023-11-21T18:29:13;16.53;;;8.60;;
3271;SDS011;1648;50.022;8.424;2023-11-21T18:44:17;13.10;;;7.60;;
3271;SDS011;1648;50.022;8.424;2023-11-21T18:59:23;15.67;;;8.43;;
3271;SDS011;1648;50.022;8.424;2023-11-21T19:14:29;6.60;;;3.90;;
3271;SDS011;1648;50.022;8.424;2023-11-21T19:45:04;4.50;;;3.30;;
3271;SDS011;1648;50.022;8.424;2023-11-21T20:00:23;2.43;;;2.20;;
3271;SDS011;1648;50.022;8.424;2023-11-21T20:15:33;7.53;;;4.40;;
3271;SDS011;1648;50.022;8.424;2023-11-21T20:30:39;6.00;;;3.50;;
3271;SDS011;1648;50.022;8.424;2023-11-21T20:45:47;9.23;;;5.70;;
3271;SDS011;1648;50.022;8.424;2023-11-21T21:16:44;10.40;;;5.53;;
3271;SDS011;1648;50.022;8.424;2023-11-21T21:31:54;7.60;;;4.80;;
3271;SDS011;1648;50.022;8.424;2023-11-21T21:47:00;13.43;;;4.90;;
3271;SDS011;1648;50.022;8.424;2023-11-21T22:02:10;5.13;;;3.47;;
3271;SDS011;1648;50.022;8.424;2023-11-21T22:17:23;6.00;;;3.83;;
3271;SDS011;1648;50.022;8.424;2023-11-21T22:32:26;7.93;;;4.50;;
3271;SDS011;1648;50.022;8.424;2023-11-21T22:47:30;9.00;;;4.10;;
3271;SDS011;1648;50.022;8.424;2023-11-21T23:02:33;5.50;;;3.73;;
3271;SDS011;1648;50.022;8.424;2023-11-21T23:17:37;6.57;;;2.80;;
3271;SDS011;1648;50.022;8.424;2023-11-21T23:32:41;5.67;;;3.10;;
3271;SDS011;1648;50.022;8.424;2023-11-21T23:47:49;4.40;;;2.83;;
